sensor_id;sensor_type;location;lat;lon;timestamp;P1;durP1;ratioP1;P2;durP2;ratioP2
58966;SDS011;44744;51.894;5.080;2023-04-24T00:00:26;2.40;;;1.20;;
58966;SDS011;44744;51.894;5.080;2023-04-24T00:01:26;2.40;;;1.30;;
58966;SDS011;44744;51.894;5.080;2023-04-24T00:02:26;3.50;;;1.60;;
58966;SDS011;44744;51.894;5.080;2023-04-24T00:03:27;1.50;;;1.10;;
58966;SDS011;44744;51.894;5.080;2023-04-24T00:04:28;1.20;;;1.10;;
58966;SDS011;44744;51.894;5.080;2023-04-24T00:05:29;2.50;;;1.60;;
58966;SDS011;44744;51.894;5.080;2023-04-24T00:06:29;1.60;;;1.20;;
58966;SDS011;44744;51.894;5.080;2023-04-24T00:07:30;1.90;;;1.20;;
58966;SDS011;44744;51.894;5.080;2023-04-24T00:08:30;1.90;;;1.10;;
58966;SDS011;44744;51.894;5.080;2023-04-24T00:09:30;2.30;;;1.10;;
58966;SDS011;44744;51.894;5.080;2023-04-24T00:10:31;1.50;;;1.10;;
58966;SDS011;44744;51.894;5.080;2023-04-24T00:11:31;1.80;;;1.00;;
58966;SDS011;44744;51.894;5.080;2023-04-24T00:12:31;1.90;;;0.90;;
58966;SDS011;44744;51.894;5.080;2023-04-24T00:13:32;1.10;;;1.00;;
58966;SDS011;44744;51.894;5.080;2023-04-24T00:14:32;2.20;;;0.90;;
58966;SDS011;44744;51.894;5.080;2023-04-24T00:15:33;1.20;;;0.80;;
58966;SDS011;44744;51.894;5.080;2023-04-24T00:16:33;3.30;;;1.10;;
58966;SDS011;44744;51.894;5.080;2023-04-24T00:17:33;1.00;;;0.70;;
58966;SDS011;44744;51.894;5.080;2023-04-24T00:18:33;3.00;;;1.30;;
58966;SDS011;44744;51.894;5.080;2023-04-24T00:19:34;0.80;;;0.80;;
58966;SDS011;44744;51.894;5.080;2023-04-24T00:20:34;0.90;;;0.80;;
58966;SDS011;44744;51.894;5.080;2023-04-24T00:21:34;1.80;;;0.70;;
58966;SDS011;44744;51.894;5.080;2023-04-24T00:22:35;1.20;;;1.00;;
58966;SDS011;44744;51.894;5.080;2023-04-24T00:23:38;1.80;;;1.00;;
58966;SDS011;44744;51.894;5.080;2023-04-24T00:24:39;2.40;;;0.70;;
58966;SDS011;44744;51.894;5.080;2023-04-24T00:25:41;2.40;;;0.90;;
58966;SDS011;44744;51.894;5.080;2023-04-24T00:26:42;1.40;;;0.80;;
58966;SDS011;44744;51.894;5.080;2023-04-24T00:27:42;0.90;;;0.80;;
58966;SDS011;44744;51.894;5.080;2023-04-24T00:28:42;1.00;;;0.90;;
58966;SDS011;44744;51.894;5.080;2023-04-24T00:29:43;1.20;;;0.90;;
58966;SDS011;44744;51.894;5.080;2023-04-24T00:30:45;1.80;;;1.00;;
58966;SDS011;44744;51.894;5.080;2023-04-24T00:31:45;1.10;;;0.90;;
58966;SDS011;44744;51.894;5.080;2023-04-24T00:32:46;1.90;;;1.10;;
58966;SDS011;44744;51.894;5.080;2023-04-24T00:33:46;1.30;;;1.10;;
58966;SDS011;44744;51.894;5.080;2023-04-24T00:34:46;1.50;;;1.00;;
58966;SDS011;44744;51.894;5.080;2023-04-24T00:35:47;1.00;;;0.90;;
58966;SDS011;44744;51.894;5.080;2023-04-24T00:36:47;2.70;;;1.20;;
58966;SDS011;44744;51.894;5.080;2023-04-24T00:37:47;2.10;;;1.20;;
58966;SDS011;44744;51.894;5.080;2023-04-24T00:38:48;1.40;;;1.10;;
58966;SDS011;44744;51.894;5.080;2023-04-24T00:39:48;1.60;;;1.20;;
58966;SDS011;44744;51.894;5.080;2023-04-24T00:40:48;1.70;;;1.30;;
58966;SDS011;44744;51.894;5.080;2023-04-24T00:41:49;1.70;;;1.00;;
58966;SDS011;44744;51.894;5.080;2023-04-24T00:42:49;2.10;;;1.20;;
58966;SDS011;44744;51.894;5.080;2023-04-24T00:43:50;2.70;;;1.10;;
58966;SDS011;44744;51.894;5.080;2023-04-24T00:44:51;1.70;;;1.40;;
58966;SDS011;44744;51.894;5.080;2023-04-24T00:45:52;1.30;;;1.10;;
58966;SDS011;44744;51.894;5.080;2023-04-24T00:46:54;1.30;;;1.10;;
58966;SDS011;44744;51.894;5.080;2023-04-24T00:47:55;3.10;;;1.30;;
58966;SDS011;44744;51.894;5.080;2023-04-24T00:48:56;1.90;;;1.30;;
58966;SDS011;44744;51.894;5.080;2023-04-24T00:50:01;3.20;;;1.30;;
58966;SDS011;44744;51.894;5.080;2023-04-24T00:51:03;1.60;;;1.20;;
58966;SDS011;44744;51.894;5.080;2023-04-24T00:52:03;1.50;;;1.10;;
58966;SDS011;44744;51.894;5.080;2023-04-24T00:53:03;3.80;;;1.30;;
58966;SDS011;44744;51.894;5.080;2023-04-24T00:54:04;1.50;;;1.20;;
58966;SDS011;44744;51.894;5.080;2023-04-24T00:55:04;1.70;;;1.30;;
58966;SDS011;44744;51.894;5.080;2023-04-24T00:56:05;2.70;;;1.50;;
58966;SDS011;44744;51.894;5.080;2023-04-24T00:57:05;1.50;;;1.30;;
58966;SDS011;44744;51.894;5.080;2023-04-24T00:58:06;1.60;;;1.30;;
58966;SDS011;44744;51.894;5.080;2023-04-24T00:59:06;3.50;;;1.70;;
58966;SDS011;44744;51.894;5.080;2023-04-24T01:00:06;2.30;;;1.20;;
58966;SDS011;44744;51.894;5.080;2023-04-24T01:01:07;3.90;;;1.70;;
58966;SDS011;44744;51.894;5.080;2023-04-24T01:02:09;2.10;;;1.40;;
58966;SDS011;44744;51.894;5.080;2023-04-24T01:03:11;1.80;;;1.30;;
58966;SDS011;44744;51.894;5.080;2023-04-24T01:04:12;2.10;;;1.40;;
58966;SDS011;44744;51.894;5.080;2023-04-24T01:05:14;1.80;;;1.40;;
58966;SDS011;44744;51.894;5.080;2023-04-24T01:06:15;2.60;;;1.80;;
58966;SDS011;44744;51.894;5.080;2023-04-24T01:07:15;2.90;;;1.90;;
58966;SDS011;44744;51.894;5.080;2023-04-24T01:09:18;2.60;;;1.90;;
58966;SDS011;44744;51.894;5.080;2023-04-24T01:10:20;3.20;;;2.20;;
58966;SDS011;44744;51.894;5.080;2023-04-24T01:11:21;3.20;;;2.00;;
58966;SDS011;44744;51.894;5.080;2023-04-24T01:12:21;3.50;;;2.40;;
58966;SDS011;44744;51.894;5.080;2023-04-24T01:13:22;3.10;;;2.20;;
58966;SDS011;44744;51.894;5.080;2023-04-24T01:14:22;3.70;;;2.30;;
58966;SDS011;44744;51.894;5.080;2023-04-24T01:15:23;3.30;;;2.50;;
58966;SDS011;44744;51.894;5.080;2023-04-24T01:16:23;3.00;;;2.50;;
58966;SDS011;44744;51.894;5.080;2023-04-24T01:17:23;4.80;;;2.90;;
58966;SDS011;44744;51.894;5.080;2023-04-24T01:18:24;3.50;;;2.60;;
58966;SDS011;44744;51.894;5.080;2023-04-24T01:19:24;3.00;;;2.60;;
58966;SDS011;44744;51.894;5.080;2023-04-24T01:20:24;3.50;;;2.50;;
58966;SDS011;44744;51.894;5.080;2023-04-24T01:21:26;3.70;;;2.80;;
58966;SDS011;44744;51.894;5.080;2023-04-24T01:22:27;3.80;;;2.60;;
58966;SDS011;44744;51.894;5.080;2023-04-24T01:23:27;3.80;;;2.80;;
58966;SDS011;44744;51.894;5.080;2023-04-24T01:24:27;3.40;;;2.80;;
58966;SDS011;44744;51.894;5.080;2023-04-24T01:25:28;7.20;;;3.00;;
58966;SDS011;44744;51.894;5.080;2023-04-24T01:26:29;7.60;;;3.40;;
58966;SDS011;44744;51.894;5.080;2023-04-24T01:27:30;4.70;;;3.40;;
58966;SDS011;44744;51.894;5.080;2023-04-24T01:28:30;4.40;;;3.30;;
58966;SDS011;44744;51.894;5.080;2023-04-24T01:29:31;5.30;;;3.70;;
58966;SDS011;44744;51.894;5.080;2023-04-24T01:30:32;4.80;;;3.60;;
58966;SDS011;44744;51.894;5.080;2023-04-24T01:31:32;4.10;;;3.30;;
58966;SDS011;44744;51.894;5.080;2023-04-24T01:32:33;4.50;;;3.40;;
58966;SDS011;44744;51.894;5.080;2023-04-24T01:33:35;5.80;;;3.50;;
58966;SDS011;44744;51.894;5.080;2023-04-24T01:34:35;4.30;;;3.30;;
58966;SDS011;44744;51.894;5.080;2023-04-24T01:35:37;5.20;;;3.50;;
58966;SDS011;44744;51.894;5.080;2023-04-24T01:36:37;5.30;;;3.70;;
58966;SDS011;44744;51.894;5.080;2023-04-24T01:37:38;4.60;;;3.30;;
58966;SDS011;44744;51.894;5.080;2023-04-24T01:38:39;6.40;;;3.50;;
58966;SDS011;44744;51.894;5.080;2023-04-24T01:39:41;6.60;;;3.70;;
58966;SDS011;44744;51.894;5.080;2023-04-24T01:40:42;5.30;;;3.30;;
58966;SDS011;44744;51.894;5.080;2023-04-24T01:41:43;4.10;;;3.40;;
58966;SDS011;44744;51.894;5.080;2023-04-24T01:42:43;5.40;;;3.80;;
58966;SDS011;44744;51.894;5.080;2023-04-24T01:43:45;4.90;;;3.90;;
58966;SDS011;44744;51.894;5.080;2023-04-24T01:44:45;5.60;;;3.90;;
58966;SDS011;44744;51.894;5.080;2023-04-24T01:45:47;5.60;;;3.70;;
58966;SDS011;44744;51.894;5.080;2023-04-24T01:46:47;5.70;;;4.20;;
58966;SDS011;44744;51.894;5.080;2023-04-24T01:47:48;7.60;;;4.40;;
58966;SDS011;44744;51.894;5.080;2023-04-24T01:48:49;5.90;;;4.10;;
58966;SDS011;44744;51.894;5.080;2023-04-24T01:49:52;6.50;;;4.50;;
58966;SDS011;44744;51.894;5.080;2023-04-24T01:50:52;7.00;;;4.40;;
58966;SDS011;44744;51.894;5.080;2023-04-24T01:51:52;5.10;;;4.60;;
58966;SDS011;44744;51.894;5.080;2023-04-24T01:52:52;6.80;;;4.40;;
58966;SDS011;44744;51.894;5.080;2023-04-24T01:53:53;4.60;;;4.10;;
58966;SDS011;44744;51.894;5.080;2023-04-24T01:54:53;4.90;;;4.40;;
58966;SDS011;44744;51.894;5.080;2023-04-24T01:55:54;6.80;;;4.50;;
58966;SDS011;44744;51.894;5.080;2023-04-24T01:56:54;5.50;;;4.40;;
58966;SDS011;44744;51.894;5.080;2023-04-24T01:57:55;4.90;;;4.20;;
58966;SDS011;44744;51.894;5.080;2023-04-24T01:58:56;5.00;;;4.50;;
58966;SDS011;44744;51.894;5.080;2023-04-24T01:59:57;5.70;;;4.50;;
58966;SDS011;44744;51.894;5.080;2023-04-24T02:00:58;5.20;;;3.90;;
58966;SDS011;44744;51.894;5.080;2023-04-24T02:01:58;6.20;;;3.90;;
58966;SDS011;44744;51.894;5.080;2023-04-24T02:02:58;4.60;;;4.10;;
58966;SDS011;44744;51.894;5.080;2023-04-24T02:03:59;5.00;;;4.20;;
58966;SDS011;44744;51.894;5.080;2023-04-24T02:04:59;5.00;;;3.90;;
58966;SDS011;44744;51.894;5.080;2023-04-24T02:05:59;5.30;;;4.40;;
58966;SDS011;44744;51.894;5.080;2023-04-24T02:06:59;4.90;;;4.00;;
58966;SDS011;44744;51.894;5.080;2023-04-24T02:08:00;5.30;;;4.20;;
58966;SDS011;44744;51.894;5.080;2023-04-24T02:09:00;6.40;;;4.20;;
58966;SDS011;44744;51.894;5.080;2023-04-24T02:10:01;6.30;;;3.80;;
58966;SDS011;44744;51.894;5.080;2023-04-24T02:11:02;5.30;;;4.10;;
58966;SDS011;44744;51.894;5.080;2023-04-24T02:12:03;6.10;;;4.10;;
58966;SDS011;44744;51.894;5.080;2023-04-24T02:13:03;5.60;;;4.00;;
58966;SDS011;44744;51.894;5.080;2023-04-24T02:14:03;5.30;;;4.00;;
58966;SDS011;44744;51.894;5.080;2023-04-24T02:15:04;4.20;;;3.60;;
58966;SDS011;44744;51.894;5.080;2023-04-24T02:16:04;4.70;;;4.20;;
58966;SDS011;44744;51.894;5.080;2023-04-24T02:17:08;4.80;;;4.10;;
58966;SDS011;44744;51.894;5.080;2023-04-24T02:18:08;4.50;;;4.00;;
58966;SDS011;44744;51.894;5.080;2023-04-24T02:19:08;6.60;;;4.50;;
58966;SDS011;44744;51.894;5.080;2023-04-24T02:20:09;8.30;;;4.30;;
58966;SDS011;44744;51.894;5.080;2023-04-24T02:21:09;6.80;;;4.10;;
58966;SDS011;44744;51.894;5.080;2023-04-24T02:22:10;5.80;;;4.10;;
58966;SDS011;44744;51.894;5.080;2023-04-24T02:23:11;4.70;;;4.20;;
58966;SDS011;44744;51.894;5.080;2023-04-24T02:24:11;5.70;;;4.30;;
58966;SDS011;44744;51.894;5.080;2023-04-24T02:25:11;5.50;;;4.40;;
58966;SDS011;44744;51.894;5.080;2023-04-24T02:26:12;5.10;;;4.50;;
58966;SDS011;44744;51.894;5.080;2023-04-24T02:27:12;5.70;;;4.50;;
58966;SDS011;44744;51.894;5.080;2023-04-24T02:28:12;6.50;;;4.90;;
58966;SDS011;44744;51.894;5.080;2023-04-24T02:29:13;6.30;;;5.50;;
58966;SDS011;44744;51.894;5.080;2023-04-24T02:30:13;6.70;;;5.20;;
58966;SDS011;44744;51.894;5.080;2023-04-24T02:31:14;6.20;;;4.90;;
58966;SDS011;44744;51.894;5.080;2023-04-24T02:32:14;6.00;;;5.10;;
58966;SDS011;44744;51.894;5.080;2023-04-24T02:33:15;7.00;;;5.60;;
58966;SDS011;44744;51.894;5.080;2023-04-24T02:34:15;6.50;;;4.70;;
58966;SDS011;44744;51.894;5.080;2023-04-24T02:35:16;6.60;;;5.20;;
58966;SDS011;44744;51.894;5.080;2023-04-24T02:36:16;7.70;;;5.50;;
58966;SDS011;44744;51.894;5.080;2023-04-24T02:37:16;6.20;;;5.50;;
58966;SDS011;44744;51.894;5.080;2023-04-24T02:38:17;6.40;;;5.10;;
58966;SDS011;44744;51.894;5.080;2023-04-24T02:39:17;6.20;;;5.40;;
58966;SDS011;44744;51.894;5.080;2023-04-24T02:40:17;8.70;;;6.20;;
58966;SDS011;44744;51.894;5.080;2023-04-24T02:41:18;8.90;;;5.90;;
58966;SDS011;44744;51.894;5.080;2023-04-24T02:42:18;11.60;;;6.10;;
58966;SDS011;44744;51.894;5.080;2023-04-24T02:43:18;7.00;;;5.90;;
58966;SDS011;44744;51.894;5.080;2023-04-24T02:44:24;9.80;;;6.30;;
58966;SDS011;44744;51.894;5.080;2023-04-24T02:45:26;7.80;;;6.50;;
58966;SDS011;44744;51.894;5.080;2023-04-24T02:46:26;9.50;;;7.40;;
58966;SDS011;44744;51.894;5.080;2023-04-24T02:47:26;7.50;;;6.40;;
58966;SDS011;44744;51.894;5.080;2023-04-24T02:48:27;11.30;;;7.50;;
58966;SDS011;44744;51.894;5.080;2023-04-24T02:49:27;10.40;;;7.00;;
58966;SDS011;44744;51.894;5.080;2023-04-24T02:50:27;10.60;;;7.00;;
58966;SDS011;44744;51.894;5.080;2023-04-24T02:51:28;8.50;;;6.90;;
58966;SDS011;44744;51.894;5.080;2023-04-24T02:52:28;10.00;;;7.80;;
58966;SDS011;44744;51.894;5.080;2023-04-24T02:53:29;9.60;;;7.30;;
58966;SDS011;44744;51.894;5.080;2023-04-24T02:54:29;11.40;;;7.30;;
58966;SDS011;44744;51.894;5.080;2023-04-24T02:55:29;12.10;;;7.90;;
58966;SDS011;44744;51.894;5.080;2023-04-24T02:56:30;9.60;;;7.80;;
58966;SDS011;44744;51.894;5.080;2023-04-24T02:57:30;12.70;;;9.10;;
58966;SDS011;44744;51.894;5.080;2023-04-24T02:58:31;11.50;;;9.20;;
58966;SDS011;44744;51.894;5.080;2023-04-24T02:59:31;11.30;;;9.10;;
58966;SDS011;44744;51.894;5.080;2023-04-24T03:00:31;13.30;;;9.30;;
58966;SDS011;44744;51.894;5.080;2023-04-24T03:01:31;12.40;;;10.00;;
58966;SDS011;44744;51.894;5.080;2023-04-24T03:02:32;15.50;;;10.70;;
58966;SDS011;44744;51.894;5.080;2023-04-24T03:03:32;13.60;;;9.80;;
58966;SDS011;44744;51.894;5.080;2023-04-24T03:04:32;14.50;;;10.50;;
58966;SDS011;44744;51.894;5.080;2023-04-24T03:05:33;13.70;;;10.40;;
58966;SDS011;44744;51.894;5.080;2023-04-24T03:06:33;18.40;;;10.80;;
58966;SDS011;44744;51.894;5.080;2023-04-24T03:07:33;15.40;;;10.90;;
58966;SDS011;44744;51.894;5.080;2023-04-24T03:08:34;13.70;;;9.50;;
58966;SDS011;44744;51.894;5.080;2023-04-24T03:09:34;14.70;;;10.40;;
58966;SDS011;44744;51.894;5.080;2023-04-24T03:10:34;12.70;;;9.60;;
58966;SDS011;44744;51.894;5.080;2023-04-24T03:11:35;14.90;;;10.20;;
58966;SDS011;44744;51.894;5.080;2023-04-24T03:12:35;15.10;;;9.90;;
58966;SDS011;44744;51.894;5.080;2023-04-24T03:13:35;11.50;;;9.60;;
58966;SDS011;44744;51.894;5.080;2023-04-24T03:14:35;11.90;;;9.30;;
58966;SDS011;44744;51.894;5.080;2023-04-24T03:15:36;13.10;;;9.60;;
58966;SDS011;44744;51.894;5.080;2023-04-24T03:16:36;13.10;;;9.90;;
58966;SDS011;44744;51.894;5.080;2023-04-24T03:17:37;12.60;;;9.50;;
58966;SDS011;44744;51.894;5.080;2023-04-24T03:18:37;11.00;;;8.30;;
58966;SDS011;44744;51.894;5.080;2023-04-24T03:19:37;12.70;;;9.00;;
58966;SDS011;44744;51.894;5.080;2023-04-24T03:20:37;12.80;;;8.10;;
58966;SDS011;44744;51.894;5.080;2023-04-24T03:21:38;10.10;;;8.30;;
58966;SDS011;44744;51.894;5.080;2023-04-24T03:22:39;10.70;;;7.70;;
58966;SDS011;44744;51.894;5.080;2023-04-24T03:23:39;10.10;;;7.50;;
58966;SDS011;44744;51.894;5.080;2023-04-24T03:24:39;10.00;;;7.50;;
58966;SDS011;44744;51.894;5.080;2023-04-24T03:25:39;9.40;;;7.40;;
58966;SDS011;44744;51.894;5.080;2023-04-24T03:26:40;11.20;;;7.60;;
58966;SDS011;44744;51.894;5.080;2023-04-24T03:27:40;9.70;;;6.90;;
58966;SDS011;44744;51.894;5.080;2023-04-24T03:28:40;10.90;;;6.30;;
58966;SDS011;44744;51.894;5.080;2023-04-24T03:29:40;12.70;;;7.30;;
58966;SDS011;44744;51.894;5.080;2023-04-24T03:30:41;8.50;;;7.10;;
58966;SDS011;44744;51.894;5.080;2023-04-24T03:31:41;9.00;;;7.10;;
58966;SDS011;44744;51.894;5.080;2023-04-24T03:32:41;10.20;;;8.00;;
58966;SDS011;44744;51.894;5.080;2023-04-24T03:33:42;9.40;;;7.40;;
58966;SDS011;44744;51.894;5.080;2023-04-24T03:34:42;10.40;;;7.80;;
58966;SDS011;44744;51.894;5.080;2023-04-24T03:35:42;9.70;;;7.30;;
58966;SDS011;44744;51.894;5.080;2023-04-24T03:36:42;10.40;;;7.00;;
58966;SDS011;44744;51.894;5.080;2023-04-24T03:37:43;13.00;;;7.40;;
58966;SDS011;44744;51.894;5.080;2023-04-24T03:38:43;9.50;;;7.30;;
58966;SDS011;44744;51.894;5.080;2023-04-24T03:39:43;9.80;;;6.90;;
58966;SDS011;44744;51.894;5.080;2023-04-24T03:40:44;8.70;;;5.00;;
58966;SDS011;44744;51.894;5.080;2023-04-24T03:41:44;5.60;;;4.20;;
58966;SDS011;44744;51.894;5.080;2023-04-24T03:42:44;4.90;;;3.80;;
58966;SDS011;44744;51.894;5.080;2023-04-24T03:43:44;3.90;;;3.10;;
58966;SDS011;44744;51.894;5.080;2023-04-24T03:44:45;7.30;;;3.60;;
58966;SDS011;44744;51.894;5.080;2023-04-24T03:45:45;4.90;;;3.00;;
58966;SDS011;44744;51.894;5.080;2023-04-24T03:46:45;5.20;;;3.40;;
58966;SDS011;44744;51.894;5.080;2023-04-24T03:47:46;5.30;;;3.30;;
58966;SDS011;44744;51.894;5.080;2023-04-24T03:48:46;4.60;;;3.30;;
58966;SDS011;44744;51.894;5.080;2023-04-24T03:49:47;5.50;;;3.30;;
58966;SDS011;44744;51.894;5.080;2023-04-24T03:50:47;3.70;;;3.20;;
58966;SDS011;44744;51.894;5.080;2023-04-24T03:51:48;6.20;;;3.50;;
58966;SDS011;44744;51.894;5.080;2023-04-24T03:52:49;3.90;;;3.10;;
58966;SDS011;44744;51.894;5.080;2023-04-24T03:53:49;3.90;;;3.10;;
58966;SDS011;44744;51.894;5.080;2023-04-24T03:54:50;4.60;;;3.10;;
58966;SDS011;44744;51.894;5.080;2023-04-24T03:55:50;4.30;;;3.20;;
58966;SDS011;44744;51.894;5.080;2023-04-24T03:56:50;4.40;;;3.70;;
58966;SDS011;44744;51.894;5.080;2023-04-24T03:57:50;5.60;;;4.00;;
58966;SDS011;44744;51.894;5.080;2023-04-24T03:58:51;9.60;;;4.50;;
58966;SDS011;44744;51.894;5.080;2023-04-24T03:59:51;6.00;;;4.20;;
58966;SDS011;44744;51.894;5.080;2023-04-24T04:00:51;6.00;;;4.10;;
58966;SDS011;44744;51.894;5.080;2023-04-24T04:01:52;5.00;;;3.80;;
58966;SDS011;44744;51.894;5.080;2023-04-24T04:02:52;6.00;;;4.00;;
58966;SDS011;44744;51.894;5.080;2023-04-24T04:03:52;5.80;;;4.00;;
58966;SDS011;44744;51.894;5.080;2023-04-24T04:04:52;5.20;;;3.60;;
58966;SDS011;44744;51.894;5.080;2023-04-24T04:05:53;4.10;;;3.20;;
58966;SDS011;44744;51.894;5.080;2023-04-24T04:06:53;3.60;;;3.00;;
58966;SDS011;44744;51.894;5.080;2023-04-24T04:07:53;3.30;;;2.70;;
58966;SDS011;44744;51.894;5.080;2023-04-24T04:08:54;4.70;;;2.80;;
58966;SDS011;44744;51.894;5.080;2023-04-24T04:09:54;4.30;;;2.90;;
58966;SDS011;44744;51.894;5.080;2023-04-24T04:10:54;3.60;;;2.80;;
58966;SDS011;44744;51.894;5.080;2023-04-24T04:11:54;3.20;;;2.40;;
58966;SDS011;44744;51.894;5.080;2023-04-24T04:12:55;3.90;;;2.60;;
58966;SDS011;44744;51.894;5.080;2023-04-24T04:13:55;3.90;;;2.50;;
58966;SDS011;44744;51.894;5.080;2023-04-24T04:14:55;4.40;;;3.00;;
58966;SDS011;44744;51.894;5.080;2023-04-24T04:15:56;4.40;;;2.60;;
58966;SDS011;44744;51.894;5.080;2023-04-24T04:16:56;3.50;;;2.70;;
58966;SDS011;44744;51.894;5.080;2023-04-24T04:17:56;4.50;;;2.90;;
58966;SDS011;44744;51.894;5.080;2023-04-24T04:18:57;6.10;;;3.20;;
58966;SDS011;44744;51.894;5.080;2023-04-24T04:19:57;3.80;;;3.00;;
58966;SDS011;44744;51.894;5.080;2023-04-24T04:20:57;4.40;;;3.20;;
58966;SDS011;44744;51.894;5.080;2023-04-24T04:21:58;3.80;;;3.00;;
58966;SDS011;44744;51.894;5.080;2023-04-24T04:22:58;3.60;;;2.80;;
58966;SDS011;44744;51.894;5.080;2023-04-24T04:23:58;3.50;;;2.60;;
58966;SDS011;44744;51.894;5.080;2023-04-24T04:24:59;4.00;;;2.70;;
58966;SDS011;44744;51.894;5.080;2023-04-24T04:25:59;3.10;;;2.30;;
58966;SDS011;44744;51.894;5.080;2023-04-24T04:26:59;3.50;;;2.50;;
58966;SDS011;44744;51.894;5.080;2023-04-24T04:27:59;3.30;;;2.50;;
58966;SDS011;44744;51.894;5.080;2023-04-24T04:29:00;4.60;;;2.70;;
58966;SDS011;44744;51.894;5.080;2023-04-24T04:30:01;4.70;;;2.40;;
58966;SDS011;44744;51.894;5.080;2023-04-24T04:32:02;4.30;;;2.50;;
58966;SDS011;44744;51.894;5.080;2023-04-24T04:33:03;3.70;;;2.80;;
58966;SDS011;44744;51.894;5.080;2023-04-24T04:34:03;3.10;;;2.40;;
58966;SDS011;44744;51.894;5.080;2023-04-24T04:35:03;5.00;;;2.50;;
58966;SDS011;44744;51.894;5.080;2023-04-24T04:36:04;3.20;;;2.60;;
58966;SDS011;44744;51.894;5.080;2023-04-24T04:37:07;3.30;;;2.40;;
58966;SDS011;44744;51.894;5.080;2023-04-24T04:38:08;4.00;;;2.30;;
58966;SDS011;44744;51.894;5.080;2023-04-24T04:39:09;3.50;;;2.40;;
58966;SDS011;44744;51.894;5.080;2023-04-24T04:40:10;3.70;;;2.20;;
58966;SDS011;44744;51.894;5.080;2023-04-24T04:41:10;3.00;;;2.30;;
58966;SDS011;44744;51.894;5.080;2023-04-24T04:42:11;3.60;;;2.20;;
58966;SDS011;44744;51.894;5.080;2023-04-24T04:43:11;3.10;;;2.10;;
58966;SDS011;44744;51.894;5.080;2023-04-24T04:44:12;3.30;;;2.10;;
58966;SDS011;44744;51.894;5.080;2023-04-24T04:45:12;3.30;;;2.40;;
58966;SDS011;44744;51.894;5.080;2023-04-24T04:46:12;4.10;;;2.30;;
58966;SDS011;44744;51.894;5.080;2023-04-24T04:47:13;3.60;;;2.50;;
58966;SDS011;44744;51.894;5.080;2023-04-24T04:48:13;4.50;;;2.60;;
58966;SDS011;44744;51.894;5.080;2023-04-24T04:49:16;4.70;;;2.90;;
58966;SDS011;44744;51.894;5.080;2023-04-24T04:50:16;3.00;;;2.10;;
58966;SDS011;44744;51.894;5.080;2023-04-24T04:51:17;3.00;;;2.00;;
58966;SDS011;44744;51.894;5.080;2023-04-24T04:52:17;3.10;;;1.90;;
58966;SDS011;44744;51.894;5.080;2023-04-24T04:53:18;4.90;;;2.60;;
58966;SDS011;44744;51.894;5.080;2023-04-24T04:54:21;3.50;;;2.20;;
58966;SDS011;44744;51.894;5.080;2023-04-24T04:55:22;3.20;;;2.30;;
58966;SDS011;44744;51.894;5.080;2023-04-24T04:56:22;4.70;;;2.20;;
58966;SDS011;44744;51.894;5.080;2023-04-24T04:57:22;3.30;;;2.30;;
58966;SDS011;44744;51.894;5.080;2023-04-24T04:58:23;3.10;;;2.20;;
58966;SDS011;44744;51.894;5.080;2023-04-24T04:59:23;2.90;;;2.20;;
58966;SDS011;44744;51.894;5.080;2023-04-24T05:00:23;3.60;;;2.50;;
58966;SDS011;44744;51.894;5.080;2023-04-24T05:01:24;3.00;;;2.30;;
58966;SDS011;44744;51.894;5.080;2023-04-24T05:02:24;4.80;;;2.70;;
58966;SDS011;44744;51.894;5.080;2023-04-24T05:03:25;4.00;;;2.80;;
58966;SDS011;44744;51.894;5.080;2023-04-24T05:04:25;5.20;;;3.60;;
58966;SDS011;44744;51.894;5.080;2023-04-24T05:05:25;5.50;;;3.90;;
58966;SDS011;44744;51.894;5.080;2023-04-24T05:06:25;6.50;;;4.60;;
58966;SDS011;44744;51.894;5.080;2023-04-24T05:07:26;5.20;;;4.20;;
58966;SDS011;44744;51.894;5.080;2023-04-24T05:08:26;4.60;;;3.50;;
58966;SDS011;44744;51.894;5.080;2023-04-24T05:09:26;4.00;;;3.10;;
58966;SDS011;44744;51.894;5.080;2023-04-24T05:10:28;4.10;;;2.70;;
58966;SDS011;44744;51.894;5.080;2023-04-24T05:11:28;4.30;;;2.70;;
58966;SDS011;44744;51.894;5.080;2023-04-24T05:12:29;3.60;;;2.60;;
58966;SDS011;44744;51.894;5.080;2023-04-24T05:13:29;3.70;;;2.20;;
58966;SDS011;44744;51.894;5.080;2023-04-24T05:14:29;4.10;;;2.30;;
58966;SDS011;44744;51.894;5.080;2023-04-24T05:15:29;3.50;;;2.70;;
58966;SDS011;44744;51.894;5.080;2023-04-24T05:16:30;3.70;;;2.70;;
58966;SDS011;44744;51.894;5.080;2023-04-24T05:17:31;4.20;;;2.40;;
58966;SDS011;44744;51.894;5.080;2023-04-24T05:18:31;4.80;;;2.90;;
58966;SDS011;44744;51.894;5.080;2023-04-24T05:19:31;4.00;;;2.70;;
58966;SDS011;44744;51.894;5.080;2023-04-24T05:20:31;6.30;;;3.30;;
58966;SDS011;44744;51.894;5.080;2023-04-24T05:21:32;4.40;;;2.90;;
58966;SDS011;44744;51.894;5.080;2023-04-24T05:22:32;3.70;;;2.60;;
58966;SDS011;44744;51.894;5.080;2023-04-24T05:23:32;3.70;;;3.00;;
58966;SDS011;44744;51.894;5.080;2023-04-24T05:24:33;3.50;;;2.50;;
58966;SDS011;44744;51.894;5.080;2023-04-24T05:25:34;3.90;;;2.50;;
58966;SDS011;44744;51.894;5.080;2023-04-24T05:26:34;3.40;;;2.30;;
58966;SDS011;44744;51.894;5.080;2023-04-24T05:27:35;3.30;;;2.50;;
58966;SDS011;44744;51.894;5.080;2023-04-24T05:28:35;3.50;;;2.50;;
58966;SDS011;44744;51.894;5.080;2023-04-24T05:29:35;3.00;;;2.20;;
58966;SDS011;44744;51.894;5.080;2023-04-24T05:30:35;3.10;;;2.60;;
58966;SDS011;44744;51.894;5.080;2023-04-24T05:31:36;4.00;;;2.50;;
58966;SDS011;44744;51.894;5.080;2023-04-24T05:32:36;2.90;;;2.30;;
58966;SDS011;44744;51.894;5.080;2023-04-24T05:33:36;3.70;;;2.50;;
58966;SDS011;44744;51.894;5.080;2023-04-24T05:34:36;3.70;;;2.50;;
58966;SDS011;44744;51.894;5.080;2023-04-24T05:35:37;5.90;;;2.50;;
58966;SDS011;44744;51.894;5.080;2023-04-24T05:36:37;3.80;;;2.30;;
58966;SDS011;44744;51.894;5.080;2023-04-24T05:37:37;4.10;;;2.80;;
58966;SDS011;44744;51.894;5.080;2023-04-24T05:38:38;3.90;;;2.40;;
58966;SDS011;44744;51.894;5.080;2023-04-24T05:39:38;3.30;;;2.40;;
58966;SDS011;44744;51.894;5.080;2023-04-24T05:40:38;6.80;;;2.70;;
58966;SDS011;44744;51.894;5.080;2023-04-24T05:41:39;4.20;;;2.80;;
58966;SDS011;44744;51.894;5.080;2023-04-24T05:42:39;4.00;;;2.50;;
58966;SDS011;44744;51.894;5.080;2023-04-24T05:43:39;3.30;;;2.60;;
58966;SDS011;44744;51.894;5.080;2023-04-24T05:44:40;3.00;;;2.50;;
58966;SDS011;44744;51.894;5.080;2023-04-24T05:45:40;3.50;;;2.40;;
58966;SDS011;44744;51.894;5.080;2023-04-24T05:46:40;3.80;;;2.50;;
58966;SDS011;44744;51.894;5.080;2023-04-24T05:47:40;4.20;;;3.00;;
58966;SDS011;44744;51.894;5.080;2023-04-24T05:48:40;3.60;;;2.50;;
58966;SDS011;44744;51.894;5.080;2023-04-24T05:49:41;3.90;;;3.00;;
58966;SDS011;44744;51.894;5.080;2023-04-24T05:50:41;4.20;;;2.90;;
58966;SDS011;44744;51.894;5.080;2023-04-24T05:51:41;3.20;;;2.50;;
58966;SDS011;44744;51.894;5.080;2023-04-24T05:52:42;4.30;;;2.50;;
58966;SDS011;44744;51.894;5.080;2023-04-24T05:53:42;3.90;;;2.80;;
58966;SDS011;44744;51.894;5.080;2023-04-24T05:54:42;3.50;;;2.30;;
58966;SDS011;44744;51.894;5.080;2023-04-24T05:55:42;3.30;;;2.20;;
58966;SDS011;44744;51.894;5.080;2023-04-24T05:56:43;6.20;;;2.70;;
58966;SDS011;44744;51.894;5.080;2023-04-24T05:57:43;3.30;;;2.20;;
58966;SDS011;44744;51.894;5.080;2023-04-24T05:58:43;3.40;;;2.30;;
58966;SDS011;44744;51.894;5.080;2023-04-24T05:59:45;3.20;;;2.00;;
58966;SDS011;44744;51.894;5.080;2023-04-24T06:00:45;3.50;;;2.20;;
58966;SDS011;44744;51.894;5.080;2023-04-24T06:01:45;3.70;;;2.30;;
58966;SDS011;44744;51.894;5.080;2023-04-24T06:02:46;2.70;;;2.00;;
58966;SDS011;44744;51.894;5.080;2023-04-24T06:03:46;5.10;;;2.10;;
58966;SDS011;44744;51.894;5.080;2023-04-24T06:04:46;3.20;;;2.40;;
58966;SDS011;44744;51.894;5.080;2023-04-24T06:05:46;2.50;;;1.80;;